Poruka od MTHOOD - pregled karte · informacija · telemetrija · vrijeme · osnovni · status · beacons · poruke · bilteni · pretraži · kretanje · Moj račun
Pozivni znak:
Prikazi:

Ucitavanje message paketa...

APRS poruka je spremljena 14 dana. Moguce je pretrazivanje upotrebom zamjenski znakova (*?) iza pocetka oznake.

2021-05-15 00:48:51 EDT: MTHOOD>N7QME: temps 58.100 78.300 54.800 60.200 369.500 106.300 78.300 79.500
2021-05-15 01:02:28 EDT: MTHOOD>N7QME: hum 47 10 63 11 255 15 26 45
2021-05-15 01:44:53 EDT: MTHOOD>N7QME: temps 57.900 77.700 53.200 60.100 369.500 106.300 78.300 79.500
2021-05-15 01:56:58 EDT: MTHOOD>N7QME: hum 47 11 61 12 255 15 26 45
2021-05-15 02:37:13 EDT: MTHOOD>N7QME: temps 57.600 76.600 51.500 60.000 369.500 106.300 78.300 79.500
2021-05-15 02:51:26 EDT: MTHOOD>N7QME: hum 47 12 62 14 255 15 26 45
2021-05-15 03:34:43 EDT: MTHOOD>N7QME: temps 57.300 76.000 50.000 59.800 369.500 106.300 78.300 79.500
2021-05-15 03:48:53 EDT: MTHOOD>N7QME: hum 47 10 61 15 255 15 26 45
2021-05-15 04:28:08 EDT: MTHOOD>N7QME: temps 56.900 75.700 48.700 59.500 369.500 106.300 78.300 79.500
2021-05-15 04:40:13 EDT: MTHOOD>N7QME: hum 47 15 62 12 255 15 26 45
2021-05-15 05:20:48 EDT: MTHOOD>N7QME: temps 56.400 75.200 47.600 59.200 369.500 106.300 78.300 79.500
2021-05-15 05:33:23 EDT: MTHOOD>N7QME: hum 46 12 63 11 255 15 26 45
2021-05-15 06:12:08 EDT: MTHOOD>N7QME: temps 56.000 75.000 46.500 59.000 369.500 106.300 78.300 79.500
2021-05-15 06:26:13 EDT: MTHOOD>N7QME: hum 46 13 63 12 255 15 26 45
2021-05-15 07:08:38 EDT: MTHOOD>N7QME: temps 55.500 74.700 45.500 58.700 369.500 106.300 78.300 79.500
2021-05-15 07:20:57 EDT: MTHOOD>N7QME: hum 47 14 63 10 255 15 26 45
2021-05-15 08:00:18 EDT: MTHOOD>N7QME: temps 55.100 74.400 44.500 58.400 369.500 106.300 78.300 79.500
2021-05-15 08:14:48 EDT: MTHOOD>N7QME: hum 46 15 65 15 255 15 26 45
2021-05-15 08:56:53 EDT: MTHOOD>N7QME: temps 54.600 74.300 43.600 58.100 369.500 106.300 78.300 79.500
2021-05-15 09:11:13 EDT: MTHOOD>N7QME: hum 46 12 66 12 255 15 26 45
2021-05-15 09:51:53 EDT: MTHOOD>N7QME: temps 54.100 74.100 43.200 57.900 369.500 106.300 78.300 79.500
2021-05-15 10:04:01 EDT: MTHOOD>N7QME: hum 45 11 67 13 255 15 26 45
2021-05-15 10:43:13 EDT: MTHOOD>N7QME: temps 53.700 74.100 42.900 57.600 369.500 106.300 78.300 79.500
2021-05-15 10:58:01 EDT: MTHOOD>N7QME: hum 45 12 70 12 255 15 26 45
2021-05-15 11:37:18 EDT: MTHOOD>N7QME: temps 53.300 74.400 43.000 57.400 369.500 106.300 78.300 79.500
2021-05-15 11:51:53 EDT: MTHOOD>N7QME: hum 45 10 77 10 255 15 26 45
2021-05-15 12:33:28 EDT: MTHOOD>N7QME: temps 53.000 75.200 44.800 57.300 369.500 106.300 78.300 79.500
2021-05-15 12:46:08 EDT: MTHOOD>N7QME: hum 45 10 79 10 255 15 26 45
2021-05-15 13:24:43 EDT: MTHOOD>N7QME: temps 53.000 76.300 48.000 57.300 369.500 106.300 78.300 79.500
2021-05-15 13:37:41 EDT: MTHOOD>N7QME: hum 46 12 76 12 255 15 26 45
2021-05-15 14:17:33 EDT: MTHOOD>N7QME: temps 53.000 77.400 51.400 57.400 369.500 106.300 78.300 79.500
2021-05-15 14:32:21 EDT: MTHOOD>N7QME: hum 46 13 72 13 255 15 26 45
2021-05-15 15:11:38 EDT: MTHOOD>N7QME: temps 53.300 78.300 54.200 57.600 369.500 106.300 78.300 79.500
2021-05-15 15:24:48 EDT: MTHOOD>N7QME: hum 47 14 68 14 255 15 26 45
2021-05-15 16:01:45 EDT: MTHOOD>N7QME: temps 53.700 78.900 56.100 58.000 369.500 106.300 78.300 79.500
2021-05-15 16:13:53 EDT: MTHOOD>N7QME: hum 47 15 63 10 255 15 26 45
2021-05-15 16:55:21 EDT: MTHOOD>N7QME: temps 54.200 79.500 57.900 58.600 369.500 106.300 78.300 79.500
2021-05-15 17:08:58 EDT: MTHOOD>N7QME: hum 47 10 61 10 255 15 26 45
2021-05-15 17:48:43 EDT: MTHOOD>N7QME: temps 55.000 80.000 59.200 59.100 369.500 106.300 78.300 79.500
2021-05-15 18:01:21 EDT: MTHOOD>N7QME: hum 48 11 61 12 255 15 26 45
2021-05-15 18:43:08 EDT: MTHOOD>N7QME: temps 56.000 80.200 60.500 59.600 369.500 106.300 78.300 79.500
2021-05-15 18:57:38 EDT: MTHOOD>N7QME: hum 47 12 60 13 255 15 26 45
2021-05-15 19:37:53 EDT: MTHOOD>N7QME: temps 57.300 80.400 61.200 59.900 369.500 106.300 78.300 79.500
2021-05-15 19:52:18 EDT: MTHOOD>N7QME: hum 48 10 59 14 255 15 26 45
2021-05-15 20:30:28 EDT: MTHOOD>N7QME: temps 58.400 80.400 61.100 60.200 369.500 106.300 78.300 79.500
2021-05-15 20:44:08 EDT: MTHOOD>N7QME: hum 48 15 58 10 255 15 26 45
2021-05-15 21:24:43 EDT: MTHOOD>N7QME: temps 58.800 80.400 60.000 60.500 369.500 106.300 78.300 79.500
2021-05-15 21:39:03 EDT: MTHOOD>N7QME: hum 48 10 60 10 255 15 26 45
2021-05-15 22:20:23 EDT: MTHOOD>N7QME: temps 58.800 80.100 58.800 60.800 369.500 106.300 78.300 79.500
2021-05-15 22:33:08 EDT: MTHOOD>N7QME: hum 47 11 63 11 255 15 26 45
< prijasnji
User guide · FAQ · Blog · Diskusijska grupa · Povezivanje sa aprs.fi · AIS stranice · Status servisa · Statistika base · Savjeti na aprs.fi · Tehnicki detalji · API · Izmjena dnevnika · Planirane promjene · Zasluge i zahvale · Uvjeti servisa · iPhone/iPad APRS